sensor_id;sensor_type;location;lat;lon;timestamp;P1;durP1;ratioP1;P2;durP2;ratioP2
47625;SDS011;33342;45.574;9.252;2023-03-29T00:02:04;7.22;;;2.03;;
47625;SDS011;33342;45.574;9.252;2023-03-29T00:04:33;6.13;;;2.45;;
47625;SDS011;33342;45.574;9.252;2023-03-29T00:07:00;4.70;;;1.80;;
47625;SDS011;33342;45.574;9.252;2023-03-29T00:09:30;4.28;;;1.80;;
47625;SDS011;33342;45.574;9.252;2023-03-29T00:11:59;4.00;;;1.95;;
47625;SDS011;33342;45.574;9.252;2023-03-29T00:14:27;6.10;;;1.90;;
47625;SDS011;33342;45.574;9.252;2023-03-29T00:16:56;6.40;;;2.00;;
47625;SDS011;33342;45.574;9.252;2023-03-29T00:19:24;5.90;;;1.77;;
47625;SDS011;33342;45.574;9.252;2023-03-29T00:21:52;5.72;;;2.22;;
47625;SDS011;33342;45.574;9.252;2023-03-29T00:24:19;5.20;;;1.98;;
47625;SDS011;33342;45.574;9.252;2023-03-29T00:26:47;5.40;;;2.00;;
47625;SDS011;33342;45.574;9.252;2023-03-29T00:29:14;4.95;;;1.95;;
47625;SDS011;33342;45.574;9.252;2023-03-29T00:31:41;5.85;;;2.00;;
47625;SDS011;33342;45.574;9.252;2023-03-29T00:34:11;7.97;;;2.35;;
47625;SDS011;33342;45.574;9.252;2023-03-29T00:36:38;6.97;;;1.98;;
47625;SDS011;33342;45.574;9.252;2023-03-29T00:39:05;6.70;;;1.90;;
47625;SDS011;33342;45.574;9.252;2023-03-29T00:41:33;4.70;;;1.75;;
47625;SDS011;33342;45.574;9.252;2023-03-29T00:44:01;6.43;;;1.92;;
47625;SDS011;33342;45.574;9.252;2023-03-29T00:46:30;5.80;;;2.30;;
47625;SDS011;33342;45.574;9.252;2023-03-29T00:49:01;5.93;;;1.60;;
47625;SDS011;33342;45.574;9.252;2023-03-29T00:51:34;6.10;;;2.25;;
47625;SDS011;33342;45.574;9.252;2023-03-29T00:54:05;4.47;;;1.85;;
47625;SDS011;33342;45.574;9.252;2023-03-29T00:56:37;5.97;;;2.10;;
47625;SDS011;33342;45.574;9.252;2023-03-29T00:59:09;7.22;;;2.70;;
47625;SDS011;33342;45.574;9.252;2023-03-29T01:01:44;5.82;;;2.50;;
47625;SDS011;33342;45.574;9.252;2023-03-29T01:06:52;8.55;;;2.20;;
47625;SDS011;33342;45.574;9.252;2023-03-29T01:09:32;5.03;;;1.95;;
47625;SDS011;33342;45.574;9.252;2023-03-29T01:12:05;5.72;;;2.17;;
47625;SDS011;33342;45.574;9.252;2023-03-29T01:14:42;8.33;;;2.40;;
47625;SDS011;33342;45.574;9.252;2023-03-29T01:17:15;5.15;;;2.13;;
47625;SDS011;33342;45.574;9.252;2023-03-29T01:19:43;7.18;;;2.30;;
47625;SDS011;33342;45.574;9.252;2023-03-29T01:24:59;5.20;;;2.33;;
47625;SDS011;33342;45.574;9.252;2023-03-29T01:30:13;7.32;;;2.40;;
47625;SDS011;33342;45.574;9.252;2023-03-29T01:38:14;3.95;;;1.60;;
47625;SDS011;33342;45.574;9.252;2023-03-29T01:40:47;7.50;;;2.47;;
47625;SDS011;33342;45.574;9.252;2023-03-29T01:46:36;8.50;;;2.67;;
47625;SDS011;33342;45.574;9.252;2023-03-29T01:48:50;6.28;;;2.65;;
47625;SDS011;33342;45.574;9.252;2023-03-29T01:51:25;5.35;;;2.45;;
47625;SDS011;33342;45.574;9.252;2023-03-29T01:54:27;4.55;;;1.70;;
47625;SDS011;33342;45.574;9.252;2023-03-29T01:57:00;5.90;;;2.17;;
47625;SDS011;33342;45.574;9.252;2023-03-29T01:59:30;6.95;;;1.92;;
47625;SDS011;33342;45.574;9.252;2023-03-29T02:02:03;4.20;;;2.03;;
47625;SDS011;33342;45.574;9.252;2023-03-29T02:04:34;4.68;;;1.67;;
47625;SDS011;33342;45.574;9.252;2023-03-29T02:07:05;4.68;;;2.00;;
47625;SDS011;33342;45.574;9.252;2023-03-29T02:09:34;5.28;;;2.33;;
47625;SDS011;33342;45.574;9.252;2023-03-29T02:12:03;4.90;;;1.98;;
47625;SDS011;33342;45.574;9.252;2023-03-29T02:14:33;7.03;;;1.85;;
47625;SDS011;33342;45.574;9.252;2023-03-29T02:19:42;6.40;;;2.15;;
47625;SDS011;33342;45.574;9.252;2023-03-29T02:22:11;6.05;;;2.08;;
47625;SDS011;33342;45.574;9.252;2023-03-29T02:24:40;5.30;;;2.17;;
47625;SDS011;33342;45.574;9.252;2023-03-29T02:27:10;4.90;;;2.03;;
47625;SDS011;33342;45.574;9.252;2023-03-29T02:29:39;6.60;;;2.47;;
47625;SDS011;33342;45.574;9.252;2023-03-29T02:32:16;4.45;;;2.20;;
47625;SDS011;33342;45.574;9.252;2023-03-29T02:34:57;6.22;;;2.53;;
47625;SDS011;33342;45.574;9.252;2023-03-29T02:37:29;7.97;;;3.13;;
47625;SDS011;33342;45.574;9.252;2023-03-29T02:39:59;7.35;;;2.60;;
47625;SDS011;33342;45.574;9.252;2023-03-29T02:42:34;9.23;;;2.88;;
47625;SDS011;33342;45.574;9.252;2023-03-29T02:45:02;6.13;;;2.33;;
47625;SDS011;33342;45.574;9.252;2023-03-29T02:47:32;7.20;;;2.75;;
47625;SDS011;33342;45.574;9.252;2023-03-29T02:50:02;7.22;;;2.35;;
47625;SDS011;33342;45.574;9.252;2023-03-29T02:52:32;8.10;;;2.50;;
47625;SDS011;33342;45.574;9.252;2023-03-29T02:55:02;6.07;;;2.38;;
47625;SDS011;33342;45.574;9.252;2023-03-29T02:57:34;5.75;;;2.20;;
47625;SDS011;33342;45.574;9.252;2023-03-29T03:00:04;6.13;;;2.70;;
47625;SDS011;33342;45.574;9.252;2023-03-29T03:02:35;6.68;;;3.50;;
47625;SDS011;33342;45.574;9.252;2023-03-29T03:05:07;4.85;;;2.35;;
47625;SDS011;33342;45.574;9.252;2023-03-29T03:07:34;7.50;;;2.50;;
47625;SDS011;33342;45.574;9.252;2023-03-29T03:10:02;7.30;;;2.30;;
47625;SDS011;33342;45.574;9.252;2023-03-29T03:12:29;6.15;;;2.55;;
47625;SDS011;33342;45.574;9.252;2023-03-29T03:14:56;5.35;;;2.35;;
47625;SDS011;33342;45.574;9.252;2023-03-29T03:17:23;7.30;;;2.15;;
47625;SDS011;33342;45.574;9.252;2023-03-29T03:19:50;8.07;;;2.75;;
47625;SDS011;33342;45.574;9.252;2023-03-29T03:22:19;6.55;;;2.50;;
47625;SDS011;33342;45.574;9.252;2023-03-29T03:24:45;7.35;;;2.95;;
47625;SDS011;33342;45.574;9.252;2023-03-29T03:27:13;8.07;;;2.58;;
47625;SDS011;33342;45.574;9.252;2023-03-29T03:29:39;8.13;;;2.90;;
47625;SDS011;33342;45.574;9.252;2023-03-29T03:32:27;10.13;;;3.13;;
47625;SDS011;33342;45.574;9.252;2023-03-29T03:35:14;7.47;;;2.72;;
47625;SDS011;33342;45.574;9.252;2023-03-29T03:37:41;8.65;;;2.90;;
47625;SDS011;33342;45.574;9.252;2023-03-29T03:40:09;10.18;;;3.22;;
47625;SDS011;33342;45.574;9.252;2023-03-29T03:42:37;12.38;;;3.80;;
47625;SDS011;33342;45.574;9.252;2023-03-29T03:45:08;8.43;;;3.45;;
47625;SDS011;33342;45.574;9.252;2023-03-29T03:47:49;9.43;;;3.05;;
47625;SDS011;33342;45.574;9.252;2023-03-29T03:50:49;10.57;;;2.78;;
47625;SDS011;33342;45.574;9.252;2023-03-29T03:53:19;8.02;;;2.78;;
47625;SDS011;33342;45.574;9.252;2023-03-29T03:56:06;12.93;;;3.00;;
47625;SDS011;33342;45.574;9.252;2023-03-29T03:58:54;8.95;;;2.90;;
47625;SDS011;33342;45.574;9.252;2023-03-29T04:01:24;9.10;;;2.72;;
47625;SDS011;33342;45.574;9.252;2023-03-29T04:04:02;7.95;;;2.88;;
47625;SDS011;33342;45.574;9.252;2023-03-29T04:06:30;10.35;;;3.08;;
47625;SDS011;33342;45.574;9.252;2023-03-29T04:09:27;8.57;;;2.63;;
47625;SDS011;33342;45.574;9.252;2023-03-29T04:12:08;10.75;;;3.20;;
47625;SDS011;33342;45.574;9.252;2023-03-29T04:14:38;8.32;;;2.60;;
47625;SDS011;33342;45.574;9.252;2023-03-29T04:17:09;8.05;;;2.50;;
47625;SDS011;33342;45.574;9.252;2023-03-29T04:19:47;8.15;;;3.42;;
47625;SDS011;33342;45.574;9.252;2023-03-29T04:22:14;12.60;;;3.45;;
47625;SDS011;33342;45.574;9.252;2023-03-29T04:24:41;7.68;;;2.47;;
47625;SDS011;33342;45.574;9.252;2023-03-29T04:27:34;10.60;;;3.13;;
47625;SDS011;33342;45.574;9.252;2023-03-29T04:30:08;8.20;;;2.80;;
47625;SDS011;33342;45.574;9.252;2023-03-29T04:32:55;8.73;;;2.90;;
47625;SDS011;33342;45.574;9.252;2023-03-29T04:35:23;9.82;;;2.63;;
47625;SDS011;33342;45.574;9.252;2023-03-29T04:37:50;13.48;;;3.97;;
47625;SDS011;33342;45.574;9.252;2023-03-29T04:40:21;9.20;;;3.25;;
47625;SDS011;33342;45.574;9.252;2023-03-29T04:43:06;9.77;;;3.40;;
47625;SDS011;33342;45.574;9.252;2023-03-29T04:45:36;9.40;;;3.28;;
47625;SDS011;33342;45.574;9.252;2023-03-29T04:48:12;11.18;;;3.53;;
47625;SDS011;33342;45.574;9.252;2023-03-29T04:50:44;10.88;;;3.58;;
47625;SDS011;33342;45.574;9.252;2023-03-29T04:53:13;14.18;;;3.63;;
47625;SDS011;33342;45.574;9.252;2023-03-29T04:55:42;10.00;;;3.40;;
47625;SDS011;33342;45.574;9.252;2023-03-29T04:58:14;12.65;;;3.97;;
47625;SDS011;33342;45.574;9.252;2023-03-29T05:00:42;11.52;;;3.30;;
47625;SDS011;33342;45.574;9.252;2023-03-29T05:03:23;15.43;;;3.90;;
47625;SDS011;33342;45.574;9.252;2023-03-29T05:06:13;11.85;;;3.25;;
47625;SDS011;33342;45.574;9.252;2023-03-29T05:08:41;11.60;;;4.22;;
47625;SDS011;33342;45.574;9.252;2023-03-29T05:11:18;13.88;;;3.83;;
47625;SDS011;33342;45.574;9.252;2023-03-29T05:13:45;9.77;;;3.83;;
47625;SDS011;33342;45.574;9.252;2023-03-29T05:16:13;10.43;;;3.30;;
47625;SDS011;33342;45.574;9.252;2023-03-29T05:18:41;14.38;;;3.92;;
47625;SDS011;33342;45.574;9.252;2023-03-29T05:21:09;12.32;;;3.92;;
47625;SDS011;33342;45.574;9.252;2023-03-29T05:23:39;20.90;;;4.43;;
47625;SDS011;33342;45.574;9.252;2023-03-29T05:26:36;9.65;;;3.63;;
47625;SDS011;33342;45.574;9.252;2023-03-29T05:29:03;11.65;;;3.75;;
47625;SDS011;33342;45.574;9.252;2023-03-29T05:31:30;9.13;;;3.08;;
47625;SDS011;33342;45.574;9.252;2023-03-29T05:33:58;9.00;;;3.25;;
47625;SDS011;33342;45.574;9.252;2023-03-29T05:36:27;11.43;;;3.20;;
47625;SDS011;33342;45.574;9.252;2023-03-29T05:38:54;11.02;;;3.70;;
47625;SDS011;33342;45.574;9.252;2023-03-29T05:41:23;9.40;;;3.58;;
47625;SDS011;33342;45.574;9.252;2023-03-29T05:44:09;9.70;;;3.30;;
47625;SDS011;33342;45.574;9.252;2023-03-29T05:46:39;10.85;;;3.42;;
47625;SDS011;33342;45.574;9.252;2023-03-29T05:49:12;7.03;;;3.35;;
47625;SDS011;33342;45.574;9.252;2023-03-29T05:51:56;15.88;;;3.95;;
47625;SDS011;33342;45.574;9.252;2023-03-29T05:54:25;12.68;;;3.38;;
47625;SDS011;33342;45.574;9.252;2023-03-29T05:56:55;8.40;;;3.38;;
47625;SDS011;33342;45.574;9.252;2023-03-29T05:59:22;9.00;;;3.22;;
47625;SDS011;33342;45.574;9.252;2023-03-29T06:01:49;11.80;;;3.65;;
47625;SDS011;33342;45.574;9.252;2023-03-29T06:04:19;10.45;;;3.25;;
47625;SDS011;33342;45.574;9.252;2023-03-29T06:07:05;9.13;;;3.63;;
47625;SDS011;33342;45.574;9.252;2023-03-29T06:09:32;13.02;;;3.67;;
47625;SDS011;33342;45.574;9.252;2023-03-29T06:12:02;10.10;;;4.13;;
47625;SDS011;33342;45.574;9.252;2023-03-29T06:14:36;9.85;;;3.58;;
47625;SDS011;33342;45.574;9.252;2023-03-29T06:17:14;10.43;;;4.03;;
47625;SDS011;33342;45.574;9.252;2023-03-29T06:19:41;8.35;;;3.30;;
47625;SDS011;33342;45.574;9.252;2023-03-29T06:22:09;16.23;;;3.90;;
47625;SDS011;33342;45.574;9.252;2023-03-29T06:24:40;10.13;;;3.67;;
47625;SDS011;33342;45.574;9.252;2023-03-29T06:27:15;9.93;;;4.30;;
47625;SDS011;33342;45.574;9.252;2023-03-29T06:29:43;9.20;;;3.65;;
47625;SDS011;33342;45.574;9.252;2023-03-29T06:32:10;12.30;;;4.15;;
47625;SDS011;33342;45.574;9.252;2023-03-29T06:34:53;7.78;;;3.90;;
47625;SDS011;33342;45.574;9.252;2023-03-29T06:37:29;14.48;;;4.50;;
47625;SDS011;33342;45.574;9.252;2023-03-29T06:40:18;14.02;;;4.13;;
47625;SDS011;33342;45.574;9.252;2023-03-29T06:42:46;11.10;;;4.45;;
47625;SDS011;33342;45.574;9.252;2023-03-29T06:45:33;10.55;;;3.92;;
47625;SDS011;33342;45.574;9.252;2023-03-29T06:48:06;12.43;;;4.32;;
47625;SDS011;33342;45.574;9.252;2023-03-29T06:50:34;13.75;;;5.00;;
47625;SDS011;33342;45.574;9.252;2023-03-29T06:53:07;11.32;;;3.92;;
47625;SDS011;33342;45.574;9.252;2023-03-29T06:55:34;10.07;;;4.53;;
47625;SDS011;33342;45.574;9.252;2023-03-29T06:58:21;10.73;;;4.13;;
47625;SDS011;33342;45.574;9.252;2023-03-29T07:00:48;8.77;;;3.65;;
47625;SDS011;33342;45.574;9.252;2023-03-29T07:03:23;8.90;;;4.23;;
47625;SDS011;33342;45.574;9.252;2023-03-29T07:05:53;11.10;;;2.95;;
47625;SDS011;33342;45.574;9.252;2023-03-29T07:08:29;8.45;;;3.00;;
47625;SDS011;33342;45.574;9.252;2023-03-29T07:11:02;12.65;;;4.03;;
47625;SDS011;33342;45.574;9.252;2023-03-29T07:13:32;9.40;;;2.60;;
47625;SDS011;33342;45.574;9.252;2023-03-29T07:16:02;11.77;;;2.53;;
47625;SDS011;33342;45.574;9.252;2023-03-29T07:18:56;6.10;;;2.53;;
47625;SDS011;33342;45.574;9.252;2023-03-29T07:21:52;6.70;;;2.70;;
47625;SDS011;33342;45.574;9.252;2023-03-29T07:24:23;6.97;;;2.42;;
47625;SDS011;33342;45.574;9.252;2023-03-29T07:26:51;7.85;;;2.45;;
47625;SDS011;33342;45.574;9.252;2023-03-29T07:29:30;6.95;;;2.80;;
47625;SDS011;33342;45.574;9.252;2023-03-29T07:31:57;6.70;;;2.40;;
47625;SDS011;33342;45.574;9.252;2023-03-29T07:34:47;7.45;;;3.28;;
47625;SDS011;33342;45.574;9.252;2023-03-29T07:37:25;8.32;;;3.03;;
47625;SDS011;33342;45.574;9.252;2023-03-29T07:39:54;9.65;;;3.30;;
47625;SDS011;33342;45.574;9.252;2023-03-29T07:42:45;10.35;;;2.80;;
47625;SDS011;33342;45.574;9.252;2023-03-29T07:45:16;8.13;;;3.08;;
47625;SDS011;33342;45.574;9.252;2023-03-29T07:47:58;10.88;;;2.95;;
47625;SDS011;33342;45.574;9.252;2023-03-29T07:50:36;9.27;;;2.83;;
47625;SDS011;33342;45.574;9.252;2023-03-29T07:53:03;6.78;;;2.78;;
47625;SDS011;33342;45.574;9.252;2023-03-29T07:55:32;9.02;;;2.40;;
47625;SDS011;33342;45.574;9.252;2023-03-29T07:58:15;11.77;;;2.70;;
47625;SDS011;33342;45.574;9.252;2023-03-29T08:00:42;6.22;;;2.58;;
47625;SDS011;33342;45.574;9.252;2023-03-29T08:03:38;9.77;;;2.25;;
47625;SDS011;33342;45.574;9.252;2023-03-29T08:06:05;7.38;;;2.50;;
47625;SDS011;33342;45.574;9.252;2023-03-29T08:08:33;8.13;;;2.50;;
47625;SDS011;33342;45.574;9.252;2023-03-29T08:11:05;12.02;;;2.40;;
47625;SDS011;33342;45.574;9.252;2023-03-29T08:13:42;10.68;;;3.38;;
47625;SDS011;33342;45.574;9.252;2023-03-29T08:16:35;14.65;;;4.45;;
47625;SDS011;33342;45.574;9.252;2023-03-29T08:19:07;6.38;;;2.60;;
47625;SDS011;33342;45.574;9.252;2023-03-29T08:21:57;5.28;;;2.15;;
47625;SDS011;33342;45.574;9.252;2023-03-29T08:24:26;5.40;;;2.20;;
47625;SDS011;33342;45.574;9.252;2023-03-29T08:26:58;7.22;;;2.05;;
47625;SDS011;33342;45.574;9.252;2023-03-29T08:29:26;4.05;;;2.00;;
47625;SDS011;33342;45.574;9.252;2023-03-29T08:31:53;7.82;;;2.00;;
47625;SDS011;33342;45.574;9.252;2023-03-29T08:34:21;4.93;;;2.15;;
47625;SDS011;33342;45.574;9.252;2023-03-29T08:37:13;7.18;;;1.80;;
47625;SDS011;33342;45.574;9.252;2023-03-29T08:39:44;6.38;;;2.28;;
47625;SDS011;33342;45.574;9.252;2023-03-29T08:50:36;7.10;;;1.98;;
47625;SDS011;33342;45.574;9.252;2023-03-29T08:53:11;8.63;;;2.53;;
47625;SDS011;33342;45.574;9.252;2023-03-29T08:56:23;8.10;;;2.20;;
47625;SDS011;33342;45.574;9.252;2023-03-29T08:58:58;8.88;;;2.28;;
47625;SDS011;33342;45.574;9.252;2023-03-29T09:01:32;7.13;;;2.58;;
47625;SDS011;33342;45.574;9.252;2023-03-29T09:04:03;6.35;;;2.10;;
47625;SDS011;33342;45.574;9.252;2023-03-29T09:06:49;11.82;;;2.58;;
47625;SDS011;33342;45.574;9.252;2023-03-29T09:09:21;5.85;;;2.30;;
47625;SDS011;33342;45.574;9.252;2023-03-29T09:26:26;9.65;;;2.42;;
47625;SDS011;33342;45.574;9.252;2023-03-29T09:29:28;7.63;;;2.22;;
47625;SDS011;33342;45.574;9.252;2023-03-29T09:32:12;15.85;;;4.13;;
47625;SDS011;33342;45.574;9.252;2023-03-29T09:34:51;14.55;;;3.28;;
47625;SDS011;33342;45.574;9.252;2023-03-29T09:37:37;7.95;;;2.60;;
47625;SDS011;33342;45.574;9.252;2023-03-29T09:40:11;8.35;;;2.20;;
47625;SDS011;33342;45.574;9.252;2023-03-29T09:45:20;13.05;;;3.63;;
47625;SDS011;33342;45.574;9.252;2023-03-29T09:47:56;8.10;;;2.70;;
47625;SDS011;33342;45.574;9.252;2023-03-29T09:50:33;9.77;;;2.70;;
47625;SDS011;33342;45.574;9.252;2023-03-29T09:53:06;5.97;;;2.42;;
47625;SDS011;33342;45.574;9.252;2023-03-29T09:55:36;10.57;;;2.92;;
47625;SDS011;33342;45.574;9.252;2023-03-29T09:58:41;8.15;;;3.35;;
47625;SDS011;33342;45.574;9.252;2023-03-29T10:01:15;10.80;;;2.70;;
47625;SDS011;33342;45.574;9.252;2023-03-29T10:03:52;8.90;;;2.47;;
47625;SDS011;33342;45.574;9.252;2023-03-29T10:06:22;5.45;;;2.42;;
47625;SDS011;33342;45.574;9.252;2023-03-29T10:08:55;7.80;;;2.43;;
47625;SDS011;33342;45.574;9.252;2023-03-29T10:11:35;10.73;;;2.90;;
47625;SDS011;33342;45.574;9.252;2023-03-29T10:14:04;13.40;;;2.67;;
47625;SDS011;33342;45.574;9.252;2023-03-29T10:16:39;9.38;;;2.55;;
47625;SDS011;33342;45.574;9.252;2023-03-29T10:19:26;5.70;;;2.35;;
47625;SDS011;33342;45.574;9.252;2023-03-29T10:22:01;7.20;;;2.17;;
47625;SDS011;33342;45.574;9.252;2023-03-29T10:24:37;7.03;;;2.42;;
47625;SDS011;33342;45.574;9.252;2023-03-29T10:27:06;6.90;;;2.50;;
47625;SDS011;33342;45.574;9.252;2023-03-29T10:29:40;9.98;;;2.50;;
47625;SDS011;33342;45.574;9.252;2023-03-29T10:32:15;8.40;;;2.47;;
47625;SDS011;33342;45.574;9.252;2023-03-29T10:35:06;5.82;;;2.30;;
47625;SDS011;33342;45.574;9.252;2023-03-29T10:37:50;7.13;;;3.00;;
47625;SDS011;33342;45.574;9.252;2023-03-29T10:40:19;10.00;;;2.50;;
47625;SDS011;33342;45.574;9.252;2023-03-29T10:42:51;7.97;;;2.03;;
47625;SDS011;33342;45.574;9.252;2023-03-29T10:45:20;7.35;;;1.80;;
47625;SDS011;33342;45.574;9.252;2023-03-29T10:47:53;5.50;;;1.90;;
47625;SDS011;33342;45.574;9.252;2023-03-29T10:50:24;7.00;;;2.45;;
47625;SDS011;33342;45.574;9.252;2023-03-29T10:52:56;11.63;;;2.58;;
47625;SDS011;33342;45.574;9.252;2023-03-29T10:55:24;6.18;;;1.98;;
47625;SDS011;33342;45.574;9.252;2023-03-29T10:58:15;7.35;;;1.88;;
47625;SDS011;33342;45.574;9.252;2023-03-29T11:01:04;6.40;;;2.17;;
47625;SDS011;33342;45.574;9.252;2023-03-29T11:06:33;8.95;;;2.28;;
47625;SDS011;33342;45.574;9.252;2023-03-29T11:09:15;6.25;;;2.00;;
47625;SDS011;33342;45.574;9.252;2023-03-29T11:12:17;5.38;;;1.73;;
47625;SDS011;33342;45.574;9.252;2023-03-29T11:17:59;9.73;;;2.30;;
47625;SDS011;33342;45.574;9.252;2023-03-29T11:26:24;6.97;;;2.78;;
47625;SDS011;33342;45.574;9.252;2023-03-29T11:29:07;7.57;;;2.47;;
47625;SDS011;33342;45.574;9.252;2023-03-29T11:31:51;5.22;;;1.90;;
47625;SDS011;33342;45.574;9.252;2023-03-29T11:34:36;8.00;;;2.67;;
47625;SDS011;33342;45.574;9.252;2023-03-29T11:40:05;8.00;;;2.50;;
47625;SDS011;33342;45.574;9.252;2023-03-29T11:43:03;8.02;;;2.50;;
47625;SDS011;33342;45.574;9.252;2023-03-29T11:48:50;7.53;;;2.72;;
47625;SDS011;33342;45.574;9.252;2023-03-29T11:51:22;9.07;;;3.40;;
47625;SDS011;33342;45.574;9.252;2023-03-29T11:56:46;7.18;;;2.42;;
47625;SDS011;33342;45.574;9.252;2023-03-29T11:59:36;8.93;;;2.58;;
47625;SDS011;33342;45.574;9.252;2023-03-29T12:02:15;9.82;;;2.25;;
47625;SDS011;33342;45.574;9.252;2023-03-29T12:04:53;7.10;;;2.10;;
47625;SDS011;33342;45.574;9.252;2023-03-29T12:10:13;7.97;;;2.13;;
47625;SDS011;33342;45.574;9.252;2023-03-29T12:12:45;6.40;;;2.45;;
47625;SDS011;33342;45.574;9.252;2023-03-29T12:15:25;6.20;;;1.88;;
47625;SDS011;33342;45.574;9.252;2023-03-29T12:20:55;9.27;;;2.58;;
47625;SDS011;33342;45.574;9.252;2023-03-29T12:23:29;7.28;;;2.13;;
47625;SDS011;33342;45.574;9.252;2023-03-29T12:25:59;5.20;;;1.92;;
47625;SDS011;33342;45.574;9.252;2023-03-29T12:31:32;6.60;;;2.58;;
47625;SDS011;33342;45.574;9.252;2023-03-29T12:37:33;9.25;;;2.70;;
47625;SDS011;33342;45.574;9.252;2023-03-29T12:40:10;9.85;;;2.65;;
47625;SDS011;33342;45.574;9.252;2023-03-29T12:43:00;8.57;;;3.03;;
47625;SDS011;33342;45.574;9.252;2023-03-29T12:48:43;9.13;;;2.40;;
47625;SDS011;33342;45.574;9.252;2023-03-29T12:51:14;6.75;;;2.05;;
47625;SDS011;33342;45.574;9.252;2023-03-29T12:53:50;9.90;;;4.15;;
47625;SDS011;33342;45.574;9.252;2023-03-29T12:56:22;9.77;;;3.42;;
47625;SDS011;33342;45.574;9.252;2023-03-29T12:59:04;9.00;;;3.38;;
47625;SDS011;33342;45.574;9.252;2023-03-29T13:01:51;6.85;;;3.25;;
47625;SDS011;33342;45.574;9.252;2023-03-29T13:04:36;7.07;;;2.37;;
47625;SDS011;33342;45.574;9.252;2023-03-29T13:07:25;9.00;;;2.78;;
47625;SDS011;33342;45.574;9.252;2023-03-29T13:10:00;9.75;;;3.30;;
47625;SDS011;33342;45.574;9.252;2023-03-29T13:12:34;11.57;;;3.22;;
47625;SDS011;33342;45.574;9.252;2023-03-29T13:15:03;13.35;;;2.58;;
47625;SDS011;33342;45.574;9.252;2023-03-29T13:17:33;10.18;;;3.10;;
47625;SDS011;33342;45.574;9.252;2023-03-29T13:29:02;5.93;;;2.47;;
47625;SDS011;33342;45.574;9.252;2023-03-29T13:37:16;7.55;;;3.45;;
47625;SDS011;33342;45.574;9.252;2023-03-29T13:48:28;7.18;;;2.38;;
47625;SDS011;33342;45.574;9.252;2023-03-29T13:51:03;9.27;;;3.63;;
47625;SDS011;33342;45.574;9.252;2023-03-29T13:53:48;7.65;;;2.88;;
47625;SDS011;33342;45.574;9.252;2023-03-29T13:56:38;8.57;;;4.03;;
47625;SDS011;33342;45.574;9.252;2023-03-29T13:59:28;8.77;;;3.70;;
47625;SDS011;33342;45.574;9.252;2023-03-29T14:02:02;8.10;;;2.85;;
47625;SDS011;33342;45.574;9.252;2023-03-29T14:04:36;8.98;;;3.38;;
47625;SDS011;33342;45.574;9.252;2023-03-29T14:07:12;8.88;;;3.50;;
47625;SDS011;33342;45.574;9.252;2023-03-29T14:09:42;9.73;;;3.47;;
47625;SDS011;33342;45.574;9.252;2023-03-29T14:12:12;9.55;;;3.33;;
47625;SDS011;33342;45.574;9.252;2023-03-29T14:14:41;14.23;;;3.90;;
47625;SDS011;33342;45.574;9.252;2023-03-29T14:17:23;10.43;;;4.32;;
47625;SDS011;33342;45.574;9.252;2023-03-29T14:19:51;9.73;;;3.78;;
47625;SDS011;33342;45.574;9.252;2023-03-29T14:22:19;11.20;;;3.42;;
47625;SDS011;33342;45.574;9.252;2023-03-29T14:24:50;12.77;;;3.78;;
47625;SDS011;33342;45.574;9.252;2023-03-29T14:27:19;11.18;;;3.30;;
47625;SDS011;33342;45.574;9.252;2023-03-29T14:29:48;11.57;;;3.90;;
47625;SDS011;33342;45.574;9.252;2023-03-29T14:32:25;11.85;;;3.50;;
47625;SDS011;33342;45.574;9.252;2023-03-29T14:34:54;8.63;;;3.60;;
47625;SDS011;33342;45.574;9.252;2023-03-29T14:37:22;9.65;;;3.35;;
47625;SDS011;33342;45.574;9.252;2023-03-29T14:39:51;12.82;;;3.72;;
47625;SDS011;33342;45.574;9.252;2023-03-29T14:42:26;10.45;;;3.22;;
47625;SDS011;33342;45.574;9.252;2023-03-29T14:45:00;9.35;;;2.90;;
47625;SDS011;33342;45.574;9.252;2023-03-29T14:47:30;7.75;;;2.72;;
47625;SDS011;33342;45.574;9.252;2023-03-29T14:49:58;13.40;;;3.72;;
47625;SDS011;33342;45.574;9.252;2023-03-29T14:52:27;10.15;;;2.72;;
47625;SDS011;33342;45.574;9.252;2023-03-29T14:54:57;6.68;;;2.55;;
47625;SDS011;33342;45.574;9.252;2023-03-29T14:57:26;8.85;;;3.22;;
47625;SDS011;33342;45.574;9.252;2023-03-29T15:00:11;7.90;;;3.00;;
47625;SDS011;33342;45.574;9.252;2023-03-29T15:02:48;12.55;;;2.70;;
47625;SDS011;33342;45.574;9.252;2023-03-29T15:05:36;7.90;;;2.70;;
47625;SDS011;33342;45.574;9.252;2023-03-29T15:08:05;9.18;;;3.20;;
47625;SDS011;33342;45.574;9.252;2023-03-29T15:10:37;9.85;;;2.85;;
47625;SDS011;33342;45.574;9.252;2023-03-29T15:13:05;9.27;;;2.58;;
47625;SDS011;33342;45.574;9.252;2023-03-29T15:15:35;9.10;;;3.20;;
47625;SDS011;33342;45.574;9.252;2023-03-29T15:18:05;9.13;;;2.55;;
47625;SDS011;33342;45.574;9.252;2023-03-29T15:20:37;7.60;;;2.42;;
47625;SDS011;33342;45.574;9.252;2023-03-29T15:25:56;7.80;;;2.40;;
47625;SDS011;33342;45.574;9.252;2023-03-29T15:28:33;7.97;;;2.15;;
47625;SDS011;33342;45.574;9.252;2023-03-29T15:31:10;7.93;;;2.70;;
47625;SDS011;33342;45.574;9.252;2023-03-29T15:33:40;7.25;;;2.88;;
47625;SDS011;33342;45.574;9.252;2023-03-29T15:36:10;8.93;;;2.50;;
47625;SDS011;33342;45.574;9.252;2023-03-29T15:38:41;7.10;;;2.50;;
47625;SDS011;33342;45.574;9.252;2023-03-29T15:41:14;8.52;;;2.60;;
47625;SDS011;33342;45.574;9.252;2023-03-29T15:43:41;9.70;;;2.40;;
47625;SDS011;33342;45.574;9.252;2023-03-29T15:46:12;9.02;;;2.38;;
47625;SDS011;33342;45.574;9.252;2023-03-29T15:48:39;8.77;;;3.10;;
47625;SDS011;33342;45.574;9.252;2023-03-29T15:51:10;7.45;;;2.55;;
47625;SDS011;33342;45.574;9.252;2023-03-29T15:53:38;8.63;;;2.30;;
47625;SDS011;33342;45.574;9.252;2023-03-29T15:56:05;7.53;;;2.85;;
47625;SDS011;33342;45.574;9.252;2023-03-29T15:58:36;10.38;;;3.08;;
47625;SDS011;33342;45.574;9.252;2023-03-29T16:01:16;9.43;;;2.80;;
47625;SDS011;33342;45.574;9.252;2023-03-29T16:04:02;11.80;;;3.08;;
47625;SDS011;33342;45.574;9.252;2023-03-29T16:06:37;8.95;;;2.75;;
47625;SDS011;33342;45.574;9.252;2023-03-29T16:09:04;11.93;;;2.97;;
47625;SDS011;33342;45.574;9.252;2023-03-29T16:11:32;6.85;;;2.78;;
47625;SDS011;33342;45.574;9.252;2023-03-29T16:13:59;7.60;;;2.65;;
47625;SDS011;33342;45.574;9.252;2023-03-29T16:16:28;10.15;;;2.97;;
47625;SDS011;33342;45.574;9.252;2023-03-29T16:18:55;10.45;;;2.72;;
47625;SDS011;33342;45.574;9.252;2023-03-29T16:21:25;9.07;;;2.45;;
47625;SDS011;33342;45.574;9.252;2023-03-29T16:23:56;8.23;;;2.80;;
47625;SDS011;33342;45.574;9.252;2023-03-29T16:26:27;10.32;;;2.45;;
47625;SDS011;33342;45.574;9.252;2023-03-29T16:28:58;11.80;;;2.90;;
47625;SDS011;33342;45.574;9.252;2023-03-29T16:31:29;8.85;;;2.50;;
47625;SDS011;33342;45.574;9.252;2023-03-29T16:34:02;9.23;;;2.70;;
47625;SDS011;33342;45.574;9.252;2023-03-29T16:36:32;11.52;;;2.88;;
47625;SDS011;33342;45.574;9.252;2023-03-29T16:39:01;8.75;;;2.50;;
47625;SDS011;33342;45.574;9.252;2023-03-29T16:41:29;9.35;;;2.85;;
47625;SDS011;33342;45.574;9.252;2023-03-29T16:44:00;9.80;;;2.75;;
47625;SDS011;33342;45.574;9.252;2023-03-29T16:46:29;11.15;;;2.85;;
47625;SDS011;33342;45.574;9.252;2023-03-29T16:48:59;10.15;;;2.80;;
47625;SDS011;33342;45.574;9.252;2023-03-29T16:51:29;10.68;;;2.50;;
47625;SDS011;33342;45.574;9.252;2023-03-29T16:53:59;9.27;;;2.42;;
47625;SDS011;33342;45.574;9.252;2023-03-29T16:56:27;14.45;;;2.88;;
47625;SDS011;33342;45.574;9.252;2023-03-29T16:58:57;11.32;;;2.72;;
47625;SDS011;33342;45.574;9.252;2023-03-29T17:01:26;6.60;;;2.45;;
47625;SDS011;33342;45.574;9.252;2023-03-29T17:03:56;7.00;;;2.40;;
47625;SDS011;33342;45.574;9.252;2023-03-29T17:06:25;12.05;;;2.97;;
47625;SDS011;33342;45.574;9.252;2023-03-29T17:08:55;10.20;;;2.40;;
47625;SDS011;33342;45.574;9.252;2023-03-29T17:11:26;13.32;;;2.53;;